sensor_id;sensor_type;location;lat;lon;timestamp;P1;durP1;ratioP1;P2;durP2;ratioP2
9306;SDS011;4691;47.612;7.610;2023-04-02T00:02:29;3.92;;;2.05;;
9306;SDS011;4691;47.612;7.610;2023-04-02T00:07:47;2.95;;;0.90;;
9306;SDS011;4691;47.612;7.610;2023-04-02T00:10:52;1.25;;;1.08;;
9306;SDS011;4691;47.612;7.610;2023-04-02T00:15:39;3.38;;;1.02;;
9306;SDS011;4691;47.612;7.610;2023-04-02T00:18:08;3.15;;;1.10;;
9306;SDS011;4691;47.612;7.610;2023-04-02T00:20:39;4.45;;;1.20;;
9306;SDS011;4691;47.612;7.610;2023-04-02T00:23:09;1.20;;;1.10;;
9306;SDS011;4691;47.612;7.610;2023-04-02T00:25:37;4.30;;;1.30;;
9306;SDS011;4691;47.612;7.610;2023-04-02T00:28:20;2.85;;;1.35;;
9306;SDS011;4691;47.612;7.610;2023-04-02T00:30:50;5.32;;;1.65;;
9306;SDS011;4691;47.612;7.610;2023-04-02T00:33:19;5.57;;;1.42;;
9306;SDS011;4691;47.612;7.610;2023-04-02T00:35:50;6.63;;;1.52;;
9306;SDS011;4691;47.612;7.610;2023-04-02T00:38:21;2.75;;;1.30;;
9306;SDS011;4691;47.612;7.610;2023-04-02T00:40:50;3.72;;;1.40;;
9306;SDS011;4691;47.612;7.610;2023-04-02T00:43:18;2.85;;;1.30;;
9306;SDS011;4691;47.612;7.610;2023-04-02T00:48:55;3.00;;;1.35;;
9306;SDS011;4691;47.612;7.610;2023-04-02T00:54:01;3.38;;;1.30;;
9306;SDS011;4691;47.612;7.610;2023-04-02T00:56:36;3.72;;;1.30;;
9306;SDS011;4691;47.612;7.610;2023-04-02T00:59:12;2.90;;;1.40;;
9306;SDS011;4691;47.612;7.610;2023-04-02T01:01:43;2.65;;;1.27;;
9306;SDS011;4691;47.612;7.610;2023-04-02T01:04:25;4.38;;;1.58;;
9306;SDS011;4691;47.612;7.610;2023-04-02T01:06:56;6.03;;;1.58;;
9306;SDS011;4691;47.612;7.610;2023-04-02T01:12:21;5.45;;;1.73;;
9306;SDS011;4691;47.612;7.610;2023-04-02T01:20:42;2.83;;;1.40;;
9306;SDS011;4691;47.612;7.610;2023-04-02T01:23:56;4.40;;;1.30;;
9306;SDS011;4691;47.612;7.610;2023-04-02T01:29:05;3.97;;;1.30;;
9306;SDS011;4691;47.612;7.610;2023-04-02T01:34:01;3.80;;;1.30;;
9306;SDS011;4691;47.612;7.610;2023-04-02T01:36:31;6.70;;;1.30;;
9306;SDS011;4691;47.612;7.610;2023-04-02T01:41:30;4.68;;;1.70;;
9306;SDS011;4691;47.612;7.610;2023-04-02T01:44:07;2.10;;;1.30;;
9306;SDS011;4691;47.612;7.610;2023-04-02T01:46:37;3.13;;;1.25;;
9306;SDS011;4691;47.612;7.610;2023-04-02T01:49:24;3.63;;;1.35;;
9306;SDS011;4691;47.612;7.610;2023-04-02T01:51:51;5.50;;;1.63;;
9306;SDS011;4691;47.612;7.610;2023-04-02T01:54:20;3.47;;;1.20;;
9306;SDS011;4691;47.612;7.610;2023-04-02T01:56:47;5.40;;;1.40;;
9306;SDS011;4691;47.612;7.610;2023-04-02T01:59:14;5.50;;;2.58;;
9306;SDS011;4691;47.612;7.610;2023-04-02T02:01:43;4.03;;;2.30;;
9306;SDS011;4691;47.612;7.610;2023-04-02T02:04:13;4.75;;;2.20;;
9306;SDS011;4691;47.612;7.610;2023-04-02T02:06:40;4.18;;;2.10;;
9306;SDS011;4691;47.612;7.610;2023-04-02T02:09:07;2.97;;;1.60;;
9306;SDS011;4691;47.612;7.610;2023-04-02T02:11:41;4.43;;;2.10;;
9306;SDS011;4691;47.612;7.610;2023-04-02T02:19:35;2.90;;;1.40;;
9306;SDS011;4691;47.612;7.610;2023-04-02T02:22:10;2.10;;;1.48;;
9306;SDS011;4691;47.612;7.610;2023-04-02T02:24:42;5.65;;;2.45;;
9306;SDS011;4691;47.612;7.610;2023-04-02T02:29:48;2.30;;;1.00;;
9306;SDS011;4691;47.612;7.610;2023-04-02T02:34:45;3.28;;;1.15;;
9306;SDS011;4691;47.612;7.610;2023-04-02T02:37:21;4.03;;;1.33;;
9306;SDS011;4691;47.612;7.610;2023-04-02T02:39:56;2.58;;;1.30;;
9306;SDS011;4691;47.612;7.610;2023-04-02T02:42:32;5.40;;;1.50;;
9306;SDS011;4691;47.612;7.610;2023-04-02T02:45:04;2.30;;;1.40;;
9306;SDS011;4691;47.612;7.610;2023-04-02T02:47:34;3.88;;;1.80;;
9306;SDS011;4691;47.612;7.610;2023-04-02T02:50:05;3.85;;;1.73;;
9306;SDS011;4691;47.612;7.610;2023-04-02T02:52:34;4.45;;;1.75;;
9306;SDS011;4691;47.612;7.610;2023-04-02T02:55:02;2.92;;;1.52;;
9306;SDS011;4691;47.612;7.610;2023-04-02T02:57:31;3.05;;;1.20;;
9306;SDS011;4691;47.612;7.610;2023-04-02T03:00:01;6.78;;;1.50;;
9306;SDS011;4691;47.612;7.610;2023-04-02T03:02:30;5.03;;;1.60;;
9306;SDS011;4691;47.612;7.610;2023-04-02T03:05:00;6.05;;;2.55;;
9306;SDS011;4691;47.612;7.610;2023-04-02T03:07:27;8.75;;;2.70;;
9306;SDS011;4691;47.612;7.610;2023-04-02T03:09:59;4.97;;;1.80;;
9306;SDS011;4691;47.612;7.610;2023-04-02T03:12:34;3.45;;;1.83;;
9306;SDS011;4691;47.612;7.610;2023-04-02T03:15:12;8.43;;;3.67;;
9306;SDS011;4691;47.612;7.610;2023-04-02T03:17:51;12.18;;;4.88;;
9306;SDS011;4691;47.612;7.610;2023-04-02T03:20:20;9.60;;;2.35;;
9306;SDS011;4691;47.612;7.610;2023-04-02T03:23:01;5.90;;;1.75;;
9306;SDS011;4691;47.612;7.610;2023-04-02T03:28:06;6.88;;;2.60;;
9306;SDS011;4691;47.612;7.610;2023-04-02T03:30:41;6.72;;;2.97;;
9306;SDS011;4691;47.612;7.610;2023-04-02T03:33:20;8.07;;;2.83;;
9306;SDS011;4691;47.612;7.610;2023-04-02T03:38:23;5.03;;;1.55;;
9306;SDS011;4691;47.612;7.610;2023-04-02T03:43:30;7.32;;;2.50;;
9306;SDS011;4691;47.612;7.610;2023-04-02T03:48:58;3.22;;;2.25;;
9306;SDS011;4691;47.612;7.610;2023-04-02T03:51:31;2.83;;;1.83;;
9306;SDS011;4691;47.612;7.610;2023-04-02T03:54:00;4.85;;;1.95;;
9306;SDS011;4691;47.612;7.610;2023-04-02T03:56:28;4.72;;;2.00;;
9306;SDS011;4691;47.612;7.610;2023-04-02T04:02:01;4.97;;;2.00;;
9306;SDS011;4691;47.612;7.610;2023-04-02T04:04:38;6.10;;;2.10;;
9306;SDS011;4691;47.612;7.610;2023-04-02T04:07:13;10.55;;;4.10;;
9306;SDS011;4691;47.612;7.610;2023-04-02T04:09:47;13.57;;;4.45;;
9306;SDS011;4691;47.612;7.610;2023-04-02T04:15:31;3.03;;;1.60;;
9306;SDS011;4691;47.612;7.610;2023-04-02T04:20:51;6.05;;;2.72;;
9306;SDS011;4691;47.612;7.610;2023-04-02T04:23:28;5.03;;;2.40;;
9306;SDS011;4691;47.612;7.610;2023-04-02T04:25:57;4.47;;;1.83;;
9306;SDS011;4691;47.612;7.610;2023-04-02T04:28:28;5.35;;;2.28;;
9306;SDS011;4691;47.612;7.610;2023-04-02T04:31:12;6.20;;;3.15;;
9306;SDS011;4691;47.612;7.610;2023-04-02T04:33:46;8.68;;;3.63;;
9306;SDS011;4691;47.612;7.610;2023-04-02T04:36:23;3.88;;;1.90;;
9306;SDS011;4691;47.612;7.610;2023-04-02T04:38:57;9.25;;;2.00;;
9306;SDS011;4691;47.612;7.610;2023-04-02T04:41:33;3.90;;;1.52;;
9306;SDS011;4691;47.612;7.610;2023-04-02T04:46:53;4.75;;;1.60;;
9306;SDS011;4691;47.612;7.610;2023-04-02T04:49:42;4.35;;;2.42;;
9306;SDS011;4691;47.612;7.610;2023-04-02T04:52:19;4.68;;;1.63;;
9306;SDS011;4691;47.612;7.610;2023-04-02T04:58:22;4.72;;;2.17;;
9306;SDS011;4691;47.612;7.610;2023-04-02T05:03:32;4.80;;;1.75;;
9306;SDS011;4691;47.612;7.610;2023-04-02T05:06:12;7.88;;;4.63;;
9306;SDS011;4691;47.612;7.610;2023-04-02T05:08:50;6.75;;;3.35;;
9306;SDS011;4691;47.612;7.610;2023-04-02T05:11:20;5.53;;;2.77;;
9306;SDS011;4691;47.612;7.610;2023-04-02T05:13:57;4.90;;;2.08;;
9306;SDS011;4691;47.612;7.610;2023-04-02T05:16:41;3.83;;;1.67;;
9306;SDS011;4691;47.612;7.610;2023-04-02T05:19:16;7.47;;;1.80;;
9306;SDS011;4691;47.612;7.610;2023-04-02T05:29:52;2.92;;;1.52;;
9306;SDS011;4691;47.612;7.610;2023-04-02T05:32:25;2.42;;;1.50;;
9306;SDS011;4691;47.612;7.610;2023-04-02T05:34:55;2.88;;;1.70;;
9306;SDS011;4691;47.612;7.610;2023-04-02T05:37:22;2.45;;;1.40;;
9306;SDS011;4691;47.612;7.610;2023-04-02T05:39:54;5.07;;;2.45;;
9306;SDS011;4691;47.612;7.610;2023-04-02T05:42:27;5.57;;;1.90;;
9306;SDS011;4691;47.612;7.610;2023-04-02T05:44:58;2.78;;;1.50;;
9306;SDS011;4691;47.612;7.610;2023-04-02T05:47:28;2.38;;;1.60;;
9306;SDS011;4691;47.612;7.610;2023-04-02T05:52:57;3.75;;;2.20;;
9306;SDS011;4691;47.612;7.610;2023-04-02T05:57:57;3.90;;;2.20;;
9306;SDS011;4691;47.612;7.610;2023-04-02T06:01:04;5.85;;;2.60;;
9306;SDS011;4691;47.612;7.610;2023-04-02T06:09:10;5.15;;;3.05;;
9306;SDS011;4691;47.612;7.610;2023-04-02T06:11:45;2.80;;;2.20;;
9306;SDS011;4691;47.612;7.610;2023-04-02T06:14:16;6.90;;;2.28;;
9306;SDS011;4691;47.612;7.610;2023-04-02T06:16:45;4.85;;;2.00;;
9306;SDS011;4691;47.612;7.610;2023-04-02T06:19:20;4.30;;;1.70;;
9306;SDS011;4691;47.612;7.610;2023-04-02T06:22:05;5.88;;;2.60;;
9306;SDS011;4691;47.612;7.610;2023-04-02T06:25:03;6.13;;;2.10;;
9306;SDS011;4691;47.612;7.610;2023-04-02T06:27:49;2.50;;;1.67;;
9306;SDS011;4691;47.612;7.610;2023-04-02T06:30:29;3.67;;;1.73;;
9306;SDS011;4691;47.612;7.610;2023-04-02T06:32:57;3.13;;;1.73;;
9306;SDS011;4691;47.612;7.610;2023-04-02T06:35:22;3.90;;;1.92;;
9306;SDS011;4691;47.612;7.610;2023-04-02T06:37:49;5.75;;;2.35;;
9306;SDS011;4691;47.612;7.610;2023-04-02T06:42:58;3.75;;;1.90;;
9306;SDS011;4691;47.612;7.610;2023-04-02T06:45:30;4.43;;;2.58;;
9306;SDS011;4691;47.612;7.610;2023-04-02T06:48:02;3.25;;;1.98;;
9306;SDS011;4691;47.612;7.610;2023-04-02T06:50:29;4.13;;;2.15;;
9306;SDS011;4691;47.612;7.610;2023-04-02T06:53:03;4.45;;;1.90;;
9306;SDS011;4691;47.612;7.610;2023-04-02T06:55:49;12.48;;;5.10;;
9306;SDS011;4691;47.612;7.610;2023-04-02T06:58:18;8.02;;;4.43;;
9306;SDS011;4691;47.612;7.610;2023-04-02T07:00:45;9.48;;;4.63;;
9306;SDS011;4691;47.612;7.610;2023-04-02T07:03:13;6.53;;;3.50;;
9306;SDS011;4691;47.612;7.610;2023-04-02T07:05:39;8.73;;;4.78;;
9306;SDS011;4691;47.612;7.610;2023-04-02T07:08:05;5.40;;;2.03;;
9306;SDS011;4691;47.612;7.610;2023-04-02T07:10:31;3.00;;;1.70;;
9306;SDS011;4691;47.612;7.610;2023-04-02T07:12:57;7.18;;;2.42;;
9306;SDS011;4691;47.612;7.610;2023-04-02T07:15:22;4.03;;;1.65;;
9306;SDS011;4691;47.612;7.610;2023-04-02T07:17:49;4.35;;;1.80;;
9306;SDS011;4691;47.612;7.610;2023-04-02T07:20:25;4.70;;;1.92;;
9306;SDS011;4691;47.612;7.610;2023-04-02T07:22:56;4.13;;;1.67;;
9306;SDS011;4691;47.612;7.610;2023-04-02T07:25:22;3.42;;;1.70;;
9306;SDS011;4691;47.612;7.610;2023-04-02T07:27:49;3.35;;;1.80;;
9306;SDS011;4691;47.612;7.610;2023-04-02T07:30:15;6.70;;;2.65;;
9306;SDS011;4691;47.612;7.610;2023-04-02T07:32:41;4.05;;;1.70;;
9306;SDS011;4691;47.612;7.610;2023-04-02T07:35:07;7.25;;;2.75;;
9306;SDS011;4691;47.612;7.610;2023-04-02T07:37:34;3.38;;;2.30;;
9306;SDS011;4691;47.612;7.610;2023-04-02T07:40:00;5.00;;;2.03;;
9306;SDS011;4691;47.612;7.610;2023-04-02T07:42:25;4.90;;;2.53;;
9306;SDS011;4691;47.612;7.610;2023-04-02T07:44:50;5.07;;;3.38;;
9306;SDS011;4691;47.612;7.610;2023-04-02T07:47:16;4.13;;;2.58;;
9306;SDS011;4691;47.612;7.610;2023-04-02T07:49:41;4.20;;;2.35;;
9306;SDS011;4691;47.612;7.610;2023-04-02T07:52:06;9.13;;;4.85;;
9306;SDS011;4691;47.612;7.610;2023-04-02T07:54:32;9.85;;;5.45;;
9306;SDS011;4691;47.612;7.610;2023-04-02T07:56:57;8.38;;;3.75;;
9306;SDS011;4691;47.612;7.610;2023-04-02T07:59:23;6.07;;;3.28;;
9306;SDS011;4691;47.612;7.610;2023-04-02T08:01:49;8.40;;;3.70;;
9306;SDS011;4691;47.612;7.610;2023-04-02T08:04:17;4.53;;;3.20;;
9306;SDS011;4691;47.612;7.610;2023-04-02T08:06:48;7.03;;;4.47;;
9306;SDS011;4691;47.612;7.610;2023-04-02T08:09:14;6.72;;;4.55;;
9306;SDS011;4691;47.612;7.610;2023-04-02T08:11:41;15.82;;;10.35;;
9306;SDS011;4691;47.612;7.610;2023-04-02T08:14:09;9.93;;;5.10;;
9306;SDS011;4691;47.612;7.610;2023-04-02T08:16:42;3.90;;;3.20;;
9306;SDS011;4691;47.612;7.610;2023-04-02T08:19:09;3.38;;;2.55;;
9306;SDS011;4691;47.612;7.610;2023-04-02T08:21:35;5.68;;;2.60;;
9306;SDS011;4691;47.612;7.610;2023-04-02T08:24:00;4.63;;;2.15;;
9306;SDS011;4691;47.612;7.610;2023-04-02T08:26:25;4.07;;;1.85;;
9306;SDS011;4691;47.612;7.610;2023-04-02T08:28:51;1.88;;;1.73;;
9306;SDS011;4691;47.612;7.610;2023-04-02T08:31:16;6.90;;;2.45;;
9306;SDS011;4691;47.612;7.610;2023-04-02T08:33:42;7.18;;;2.33;;
9306;SDS011;4691;47.612;7.610;2023-04-02T08:36:12;31.30;;;2.60;;
9306;SDS011;4691;47.612;7.610;2023-04-02T08:38:40;3.95;;;1.85;;
9306;SDS011;4691;47.612;7.610;2023-04-02T08:41:06;3.47;;;1.60;;
9306;SDS011;4691;47.612;7.610;2023-04-02T08:48:55;5.50;;;2.28;;
9306;SDS011;4691;47.612;7.610;2023-04-02T08:51:24;3.22;;;2.05;;
9306;SDS011;4691;47.612;7.610;2023-04-02T08:53:57;5.25;;;1.80;;
9306;SDS011;4691;47.612;7.610;2023-04-02T08:56:42;3.58;;;1.90;;
9306;SDS011;4691;47.612;7.610;2023-04-02T09:04:21;4.15;;;2.47;;
9306;SDS011;4691;47.612;7.610;2023-04-02T09:06:48;6.07;;;2.25;;
9306;SDS011;4691;47.612;7.610;2023-04-02T09:09:16;7.53;;;4.20;;
9306;SDS011;4691;47.612;7.610;2023-04-02T09:11:52;13.30;;;11.85;;
9306;SDS011;4691;47.612;7.610;2023-04-02T09:14:42;4.40;;;2.50;;
9306;SDS011;4691;47.612;7.610;2023-04-02T09:17:15;5.35;;;1.67;;
9306;SDS011;4691;47.612;7.610;2023-04-02T09:19:45;2.50;;;1.77;;
9306;SDS011;4691;47.612;7.610;2023-04-02T09:22:25;3.17;;;1.70;;
9306;SDS011;4691;47.612;7.610;2023-04-02T09:24:59;1.85;;;1.50;;
9306;SDS011;4691;47.612;7.610;2023-04-02T09:27:30;1.65;;;1.25;;
9306;SDS011;4691;47.612;7.610;2023-04-02T09:30:05;1.20;;;0.80;;
9306;SDS011;4691;47.612;7.610;2023-04-02T09:32:54;1.75;;;1.00;;
9306;SDS011;4691;47.612;7.610;2023-04-02T09:35:26;1.20;;;0.80;;
9306;SDS011;4691;47.612;7.610;2023-04-02T09:38:36;4.25;;;2.10;;
9306;SDS011;4691;47.612;7.610;2023-04-02T09:43:23;1.25;;;0.70;;
9306;SDS011;4691;47.612;7.610;2023-04-02T09:49:15;1.00;;;0.90;;
9306;SDS011;4691;47.612;7.610;2023-04-02T09:51:45;1.45;;;0.60;;
9306;SDS011;4691;47.612;7.610;2023-04-02T09:54:29;3.30;;;1.05;;
9306;SDS011;4691;47.612;7.610;2023-04-02T09:57:01;0.80;;;0.60;;
9306;SDS011;4691;47.612;7.610;2023-04-02T09:59:29;0.70;;;0.65;;
9306;SDS011;4691;47.612;7.610;2023-04-02T10:01:58;0.60;;;0.60;;
9306;SDS011;4691;47.612;7.610;2023-04-02T10:13:05;1.08;;;0.60;;
9306;SDS011;4691;47.612;7.610;2023-04-02T10:15:36;0.70;;;0.60;;
9306;SDS011;4691;47.612;7.610;2023-04-02T10:18:08;1.60;;;1.30;;
9306;SDS011;4691;47.612;7.610;2023-04-02T10:20:53;0.50;;;0.50;;
9306;SDS011;4691;47.612;7.610;2023-04-02T10:23:22;0.68;;;0.50;;
9306;SDS011;4691;47.612;7.610;2023-04-02T10:25:56;1.35;;;0.90;;
9306;SDS011;4691;47.612;7.610;2023-04-02T10:31:20;0.57;;;0.57;;
9306;SDS011;4691;47.612;7.610;2023-04-02T10:33:50;1.48;;;0.70;;
9306;SDS011;4691;47.612;7.610;2023-04-02T10:36:23;0.77;;;0.60;;
9306;SDS011;4691;47.612;7.610;2023-04-02T10:39:13;0.93;;;0.70;;
9306;SDS011;4691;47.612;7.610;2023-04-02T10:47:03;2.63;;;1.55;;
9306;SDS011;4691;47.612;7.610;2023-04-02T10:54:48;0.70;;;0.60;;
9306;SDS011;4691;47.612;7.610;2023-04-02T10:59:42;0.73;;;0.63;;
9306;SDS011;4691;47.612;7.610;2023-04-02T11:02:18;0.70;;;0.70;;
9306;SDS011;4691;47.612;7.610;2023-04-02T11:04:57;1.00;;;0.60;;
9306;SDS011;4691;47.612;7.610;2023-04-02T11:07:26;0.80;;;0.60;;
9306;SDS011;4691;47.612;7.610;2023-04-02T11:09:59;1.98;;;0.73;;
9306;SDS011;4691;47.612;7.610;2023-04-02T11:12:36;0.75;;;0.70;;
9306;SDS011;4691;47.612;7.610;2023-04-02T11:15:17;3.80;;;1.00;;
9306;SDS011;4691;47.612;7.610;2023-04-02T11:17:44;1.48;;;0.80;;
9306;SDS011;4691;47.612;7.610;2023-04-02T11:23:14;1.02;;;0.73;;
9306;SDS011;4691;47.612;7.610;2023-04-02T11:25:43;0.60;;;0.60;;
9306;SDS011;4691;47.612;7.610;2023-04-02T11:28:24;1.00;;;0.60;;
9306;SDS011;4691;47.612;7.610;2023-04-02T11:30:53;1.20;;;1.10;;
9306;SDS011;4691;47.612;7.610;2023-04-02T11:36:07;1.80;;;1.20;;
9306;SDS011;4691;47.612;7.610;2023-04-02T11:39:09;0.63;;;0.63;;
9306;SDS011;4691;47.612;7.610;2023-04-02T11:44:23;0.70;;;0.60;;
9306;SDS011;4691;47.612;7.610;2023-04-02T11:46:49;1.35;;;0.60;;
9306;SDS011;4691;47.612;7.610;2023-04-02T11:52:23;0.85;;;0.80;;
9306;SDS011;4691;47.612;7.610;2023-04-02T11:54:54;1.38;;;0.85;;
9306;SDS011;4691;47.612;7.610;2023-04-02T11:57:41;1.90;;;0.80;;
9306;SDS011;4691;47.612;7.610;2023-04-02T12:00:29;1.17;;;0.88;;
9306;SDS011;4691;47.612;7.610;2023-04-02T12:03:11;0.75;;;0.65;;
9306;SDS011;4691;47.612;7.610;2023-04-02T12:05:59;2.13;;;1.00;;
9306;SDS011;4691;47.612;7.610;2023-04-02T12:11:42;0.98;;;0.80;;
9306;SDS011;4691;47.612;7.610;2023-04-02T12:17:35;0.63;;;0.60;;
9306;SDS011;4691;47.612;7.610;2023-04-02T12:22:34;0.93;;;0.85;;
9306;SDS011;4691;47.612;7.610;2023-04-02T12:25:04;1.42;;;0.90;;
9306;SDS011;4691;47.612;7.610;2023-04-02T12:27:30;1.02;;;0.80;;
9306;SDS011;4691;47.612;7.610;2023-04-02T12:30:12;0.70;;;0.65;;
9306;SDS011;4691;47.612;7.610;2023-04-02T12:32:42;0.75;;;0.70;;
9306;SDS011;4691;47.612;7.610;2023-04-02T12:35:28;0.80;;;0.80;;
9306;SDS011;4691;47.612;7.610;2023-04-02T12:37:57;1.83;;;0.85;;
9306;SDS011;4691;47.612;7.610;2023-04-02T12:40:22;1.50;;;1.00;;
9306;SDS011;4691;47.612;7.610;2023-04-02T12:42:49;1.13;;;0.70;;
9306;SDS011;4691;47.612;7.610;2023-04-02T12:47:48;0.60;;;0.60;;
9306;SDS011;4691;47.612;7.610;2023-04-02T12:50:14;1.40;;;1.20;;
9306;SDS011;4691;47.612;7.610;2023-04-02T12:52:43;0.75;;;0.70;;
9306;SDS011;4691;47.612;7.610;2023-04-02T12:55:17;0.75;;;0.70;;
9306;SDS011;4691;47.612;7.610;2023-04-02T12:57:46;1.40;;;0.50;;
9306;SDS011;4691;47.612;7.610;2023-04-02T13:03:30;1.13;;;0.93;;
9306;SDS011;4691;47.612;7.610;2023-04-02T13:05:35;0.77;;;0.50;;
9306;SDS011;4691;47.612;7.610;2023-04-02T13:08:12;0.85;;;0.70;;
9306;SDS011;4691;47.612;7.610;2023-04-02T13:10:41;1.02;;;0.82;;
9306;SDS011;4691;47.612;7.610;2023-04-02T13:13:11;0.77;;;0.77;;
9306;SDS011;4691;47.612;7.610;2023-04-02T13:15:40;1.15;;;0.82;;
9306;SDS011;4691;47.612;7.610;2023-04-02T13:18:20;0.98;;;0.88;;
9306;SDS011;4691;47.612;7.610;2023-04-02T13:20:53;1.63;;;0.80;;
9306;SDS011;4691;47.612;7.610;2023-04-02T13:23:22;0.95;;;0.85;;
9306;SDS011;4691;47.612;7.610;2023-04-02T13:28:16;1.80;;;0.70;;
9306;SDS011;4691;47.612;7.610;2023-04-02T13:30:41;0.70;;;0.50;;
9306;SDS011;4691;47.612;7.610;2023-04-02T13:33:07;0.70;;;0.60;;
9306;SDS011;4691;47.612;7.610;2023-04-02T13:35:32;1.00;;;0.80;;
9306;SDS011;4691;47.612;7.610;2023-04-02T13:38:00;0.88;;;0.70;;
9306;SDS011;4691;47.612;7.610;2023-04-02T13:40:27;0.68;;;0.60;;
9306;SDS011;4691;47.612;7.610;2023-04-02T13:42:52;0.63;;;0.60;;
9306;SDS011;4691;47.612;7.610;2023-04-02T13:45:24;1.13;;;0.70;;
9306;SDS011;4691;47.612;7.610;2023-04-02T13:47:52;0.70;;;0.60;;
9306;SDS011;4691;47.612;7.610;2023-04-02T13:50:20;0.77;;;0.70;;
9306;SDS011;4691;47.612;7.610;2023-04-02T13:52:48;0.70;;;0.68;;
9306;SDS011;4691;47.612;7.610;2023-04-02T13:55:15;0.70;;;0.70;;
9306;SDS011;4691;47.612;7.610;2023-04-02T13:57:43;0.90;;;0.70;;
9306;SDS011;4691;47.612;7.610;2023-04-02T14:00:09;1.35;;;1.25;;
9306;SDS011;4691;47.612;7.610;2023-04-02T14:02:36;1.17;;;0.90;;
9306;SDS011;4691;47.612;7.610;2023-04-02T14:24:15;1.17;;;0.90;;
9306;SDS011;4691;47.612;7.610;2023-04-02T14:29:29;2.10;;;1.23;;
9306;SDS011;4691;47.612;7.610;2023-04-02T14:32:05;1.10;;;0.80;;
9306;SDS011;4691;47.612;7.610;2023-04-02T14:34:46;3.95;;;0.80;;
9306;SDS011;4691;47.612;7.610;2023-04-02T14:45:15;0.90;;;0.82;;
9306;SDS011;4691;47.612;7.610;2023-04-02T14:47:53;2.08;;;1.60;;
9306;SDS011;4691;47.612;7.610;2023-04-02T14:50:45;2.35;;;1.15;;
9306;SDS011;4691;47.612;7.610;2023-04-02T14:53:21;1.02;;;0.80;;
9306;SDS011;4691;47.612;7.610;2023-04-02T14:55:51;1.63;;;1.10;;
9306;SDS011;4691;47.612;7.610;2023-04-02T14:58:25;1.05;;;0.90;;
9306;SDS011;4691;47.612;7.610;2023-04-02T15:00:58;0.68;;;0.68;;
9306;SDS011;4691;47.612;7.610;2023-04-02T15:03:36;3.05;;;1.42;;
9306;SDS011;4691;47.612;7.610;2023-04-02T15:06:09;1.95;;;0.93;;
9306;SDS011;4691;47.612;7.610;2023-04-02T15:08:41;1.10;;;0.82;;
9306;SDS011;4691;47.612;7.610;2023-04-02T15:11:16;5.93;;;3.08;;
9306;SDS011;4691;47.612;7.610;2023-04-02T15:13:48;1.17;;;1.05;;
9306;SDS011;4691;47.612;7.610;2023-04-02T15:16:20;2.40;;;1.00;;
9306;SDS011;4691;47.612;7.610;2023-04-02T15:18:49;0.77;;;0.73;;
9306;SDS011;4691;47.612;7.610;2023-04-02T15:24:08;1.45;;;0.80;;
9306;SDS011;4691;47.612;7.610;2023-04-02T15:40:22;0.80;;;0.80;;
9306;SDS011;4691;47.612;7.610;2023-04-02T15:46:04;1.00;;;0.60;;
9306;SDS011;4691;47.612;7.610;2023-04-02T15:54:25;1.02;;;0.77;;
9306;SDS011;4691;47.612;7.610;2023-04-02T16:10:58;1.52;;;1.20;;
9306;SDS011;4691;47.612;7.610;2023-04-02T16:13:31;1.10;;;0.80;;
9306;SDS011;4691;47.612;7.610;2023-04-02T16:21:18;1.10;;;0.85;;
9306;SDS011;4691;47.612;7.610;2023-04-02T16:23:46;1.25;;;0.90;;
9306;SDS011;4691;47.612;7.610;2023-04-02T16:26:46;1.10;;;1.00;;
9306;SDS011;4691;47.612;7.610;2023-04-02T16:37:53;1.35;;;1.00;;
9306;SDS011;4691;47.612;7.610;2023-04-02T16:40:25;2.17;;;0.95;;
9306;SDS011;4691;47.612;7.610;2023-04-02T16:43:04;3.53;;;1.05;;
9306;SDS011;4691;47.612;7.610;2023-04-02T16:45:39;0.90;;;0.90;;
9306;SDS011;4691;47.612;7.610;2023-04-02T16:48:17;9.90;;;5.82;;
9306;SDS011;4691;47.612;7.610;2023-04-02T16:53:29;1.67;;;1.23;;
9306;SDS011;4691;47.612;7.610;2023-04-02T16:56:03;4.80;;;2.65;;
9306;SDS011;4691;47.612;7.610;2023-04-02T17:04:24;1.42;;;1.27;;
9306;SDS011;4691;47.612;7.610;2023-04-02T17:15:07;3.70;;;2.00;;
9306;SDS011;4691;47.612;7.610;2023-04-02T17:17:41;3.92;;;2.25;;
9306;SDS011;4691;47.612;7.610;2023-04-02T17:20:12;3.40;;;1.70;;
9306;SDS011;4691;47.612;7.610;2023-04-02T17:22:42;1.92;;;1.40;;
9306;SDS011;4691;47.612;7.610;2023-04-02T17:25:11;1.85;;;1.23;;
9306;SDS011;4691;47.612;7.610;2023-04-02T17:27:42;2.47;;;1.55;;
9306;SDS011;4691;47.612;7.610;2023-04-02T17:30:14;2.30;;;1.60;;
9306;SDS011;4691;47.612;7.610;2023-04-02T17:32:43;1.98;;;1.13;;
9306;SDS011;4691;47.612;7.610;2023-04-02T17:35:16;3.67;;;1.20;;
9306;SDS011;4691;47.612;7.610;2023-04-02T17:37:49;3.33;;;1.63;;
9306;SDS011;4691;47.612;7.610;2023-04-02T17:40:28;2.08;;;1.33;;
9306;SDS011;4691;47.612;7.610;2023-04-02T17:45:37;2.20;;;1.30;;
9306;SDS011;4691;47.612;7.610;2023-04-02T17:56:38;1.80;;;1.30;;
9306;SDS011;4691;47.612;7.610;2023-04-02T18:04:43;2.63;;;1.38;;
9306;SDS011;4691;47.612;7.610;2023-04-02T18:07:41;1.75;;;1.40;;
9306;SDS011;4691;47.612;7.610;2023-04-02T18:21:10;4.68;;;2.28;;
9306;SDS011;4691;47.612;7.610;2023-04-02T18:34:56;4.47;;;3.00;;
9306;SDS011;4691;47.612;7.610;2023-04-02T18:37:56;3.78;;;2.58;;
9306;SDS011;4691;47.612;7.610;2023-04-02T18:40:58;5.47;;;2.33;;
9306;SDS011;4691;47.612;7.610;2023-04-02T18:43:46;5.63;;;2.33;;
9306;SDS011;4691;47.612;7.610;2023-04-02T18:51:57;3.55;;;1.80;;
9306;SDS011;4691;47.612;7.610;2023-04-02T18:54:31;3.15;;;1.38;;
9306;SDS011;4691;47.612;7.610;2023-04-02T18:57:00;1.60;;;1.50;;
9306;SDS011;4691;47.612;7.610;2023-04-02T18:59:35;3.35;;;2.03;;
9306;SDS011;4691;47.612;7.610;2023-04-02T19:02:53;2.75;;;1.73;;
9306;SDS011;4691;47.612;7.610;2023-04-02T19:05:31;2.78;;;2.05;;
9306;SDS011;4691;47.612;7.610;2023-04-02T19:11:06;2.65;;;1.90;;
9306;SDS011;4691;47.612;7.610;2023-04-02T19:13:36;3.60;;;2.70;;
9306;SDS011;4691;47.612;7.610;2023-04-02T19:16:07;4.97;;;3.40;;
9306;SDS011;4691;47.612;7.610;2023-04-02T19:24:25;4.07;;;2.72;;
9306;SDS011;4691;47.612;7.610;2023-04-02T19:35:31;2.33;;;1.90;;
9306;SDS011;4691;47.612;7.610;2023-04-02T19:38:12;3.25;;;2.00;;
9306;SDS011;4691;47.612;7.610;2023-04-02T19:43:08;3.28;;;1.90;;
9306;SDS011;4691;47.612;7.610;2023-04-02T19:45:41;2.58;;;1.80;;
9306;SDS011;4691;47.612;7.610;2023-04-02T19:48:15;3.63;;;2.40;;
9306;SDS011;4691;47.612;7.610;2023-04-02T19:50:44;3.58;;;2.83;;
9306;SDS011;4691;47.612;7.610;2023-04-02T19:53:10;4.30;;;2.63;;
9306;SDS011;4691;47.612;7.610;2023-04-02T19:55:36;4.82;;;3.17;;
9306;SDS011;4691;47.612;7.610;2023-04-02T19:58:01;4.68;;;3.80;;
9306;SDS011;4691;47.612;7.610;2023-04-02T20:00:26;6.32;;;4.47;;
9306;SDS011;4691;47.612;7.610;2023-04-02T20:02:52;7.38;;;4.82;;
9306;SDS011;4691;47.612;7.610;2023-04-02T20:05:17;7.32;;;4.80;;
9306;SDS011;4691;47.612;7.610;2023-04-02T20:07:42;6.70;;;5.43;;
9306;SDS011;4691;47.612;7.610;2023-04-02T20:10:08;7.85;;;6.45;;
9306;SDS011;4691;47.612;7.610;2023-04-02T20:12:34;8.85;;;6.25;;
9306;SDS011;4691;47.612;7.610;2023-04-02T20:15:00;7.82;;;5.38;;
9306;SDS011;4691;47.612;7.610;2023-04-02T20:17:25;9.50;;;7.28;;
9306;SDS011;4691;47.612;7.610;2023-04-02T20:19:52;8.82;;;7.35;;
9306;SDS011;4691;47.612;7.610;2023-04-02T20:22:17;12.25;;;9.05;;
9306;SDS011;4691;47.612;7.610;2023-04-02T20:24:43;14.90;;;10.85;;
9306;SDS011;4691;47.612;7.610;2023-04-02T20:27:08;12.00;;;10.05;;
9306;SDS011;4691;47.612;7.610;2023-04-02T20:29:34;18.23;;;12.13;;
9306;SDS011;4691;47.612;7.610;2023-04-02T20:31:59;13.15;;;10.43;;
9306;SDS011;4691;47.612;7.610;2023-04-02T20:34:25;16.02;;;12.55;;
9306;SDS011;4691;47.612;7.610;2023-04-02T20:36:50;19.83;;;13.70;;
9306;SDS011;4691;47.612;7.610;2023-04-02T20:39:15;16.33;;;12.93;;
9306;SDS011;4691;47.612;7.610;2023-04-02T20:41:44;21.98;;;15.18;;
9306;SDS011;4691;47.612;7.610;2023-04-02T20:44:13;21.88;;;16.52;;
9306;SDS011;4691;47.612;7.610;2023-04-02T20:46:38;20.20;;;15.10;;
9306;SDS011;4691;47.612;7.610;2023-04-02T20:49:04;20.08;;;15.30;;
9306;SDS011;4691;47.612;7.610;2023-04-02T20:51:29;22.67;;;16.30;;
9306;SDS011;4691;47.612;7.610;2023-04-02T20:53:54;16.67;;;13.35;;
9306;SDS011;4691;47.612;7.610;2023-04-02T20:56:20;16.35;;;12.30;;
9306;SDS011;4691;47.612;7.610;2023-04-02T20:58:47;18.55;;;13.82;;
9306;SDS011;4691;47.612;7.610;2023-04-02T21:01:23;20.20;;;15.05;;
9306;SDS011;4691;47.612;7.610;2023-04-02T21:03:57;19.88;;;15.10;;
9306;SDS011;4691;47.612;7.610;2023-04-02T21:06:25;18.83;;;14.73;;